Time;durP1;ratioP1;P1;durP2;ratioP2;P2;SDS_P1;SDS_P2;PMS_P1;PMS_P2;Temp;Humidity;BMP_temperature;BMP_pressure;BME280_temperature;BME280_humidity;BME280_pressure;Samples;Min_cycle;Max_cycle;Signal;HPM_P1;HPM_P2
2021/04/16 00:00:11;;;;;;;10.48;8.35;;;;;;;3.82;70.26;100010.50;4187303;34;34289;-90
2021/04/16 00:02:44;;;;;;;10.85;8.70;;;;;;;4.09;69.60;100017.00;4187059;34;34164;-84
2021/04/16 00:05:17;;;;;;;12.30;9.57;;;;;;;4.27;68.80;100025.19;4176402;34;35723;-84
2021/04/16 00:07:50;;;;;;;10.05;8.43;;;;;;;4.17;68.90;100014.50;4176699;34;34707;-84
2021/04/16 00:10:43;;;;;;;10.93;8.68;;;;;;;4.00;69.52;100010.69;4176405;34;35356;-90
2021/04/16 00:13:23;;;;;;;12.05;9.68;;;;;;;3.85;69.91;100011.06;4176370;34;35156;-84
2021/04/16 00:15:55;;;;;;;10.98;9.05;;;;;;;4.10;68.84;100013.34;4185982;34;35505;-89
2021/04/16 00:18:29;;;;;;;12.15;9.50;;;;;;;4.03;69.37;100008.56;4165641;34;35073;-90
2021/04/16 00:21:03;;;;;;;13.00;9.35;;;;;;;3.93;69.73;100006.87;4170942;34;34664;-90
2021/04/16 00:23:36;;;;;;;13.43;9.88;;;;;;;3.95;69.72;100007.56;4176026;34;34289;-87
2021/04/16 00:26:11;;;;;;;12.60;9.68;;;;;;;3.81;70.29;100014.16;4175854;34;35890;-87
2021/04/16 00:28:43;;;;;;;13.23;10.07;;;;;;;3.62;70.98;100007.78;4176206;34;35449;-90
2021/04/16 00:31:26;;;;;;;12.93;10.20;;;;;;;3.72;70.38;100008.62;4176338;34;34594;-90
2021/04/16 00:34:02;;;;;;;13.88;10.65;;;;;;;3.53;70.75;100005.91;4176013;34;33816;-85
2021/04/16 00:36:34;;;;;;;13.93;10.77;;;;;;;3.68;70.57;100009.91;4176042;34;34518;-84
2021/04/16 00:39:17;;;;;;;14.35;11.07;;;;;;;3.70;70.20;100004.44;4176560;34;33900;-89
2021/04/16 00:41:50;;;;;;;13.55;10.02;;;;;;;3.38;71.60;100001.91;4176474;34;35650;-85
2021/04/16 00:44:23;;;;;;;13.90;10.45;;;;;;;3.86;69.85;99999.41;4176179;34;35466;-85
2021/04/16 00:46:59;;;;;;;13.90;11.00;;;;;;;3.37;71.26;100009.09;4176166;34;34610;-83
2021/04/16 00:49:42;;;;;;;13.93;10.75;;;;;;;3.63;70.51;100005.94;4176713;34;35098;-91
2021/04/16 00:52:25;;;;;;;12.52;9.75;;;;;;;3.62;70.29;100009.59;4174720;34;33860;-85
2021/04/16 00:54:59;;;;;;;13.55;10.35;;;;;;;3.79;69.51;100003.59;4177584;34;33986;-90
2021/04/16 00:57:31;;;;;;;15.15;10.57;;;;;;;3.90;69.12;100007.97;4176304;34;32466;-90
2021/04/16 01:00:06;;;;;;;14.27;10.88;;;;;;;3.67;69.76;100008.22;4186714;34;34698;-90
2021/04/16 01:02:38;;;;;;;16.10;11.60;;;;;;;3.31;71.23;100007.81;4173739;34;34590;-89
2021/04/16 01:05:12;;;;;;;15.20;10.77;;;;;;;3.41;70.96;100013.16;4173505;34;34431;-84
2021/04/16 01:07:44;;;;;;;14.75;11.35;;;;;;;3.18;71.85;100017.88;4177379;34;34546;-90
2021/04/16 01:10:20;;;;;;;15.68;11.10;;;;;;;2.90;72.76;100014.88;4176149;34;35218;-89
2021/04/16 01:12:53;;;;;;;16.08;12.60;;;;;;;2.86;73.05;100007.28;4164970;34;34560;-88
2021/04/16 01:15:31;;;;;;;17.83;12.02;;;;;;;3.04;72.59;100010.19;4152177;34;33705;-92
2021/04/16 01:18:11;;;;;;;15.38;11.73;;;;;;;2.80;73.14;100009.50;4151971;34;33964;-84
2021/04/16 01:20:46;;;;;;;15.45;11.20;;;;;;;2.87;73.19;100015.16;4154964;34;34421;-84
2021/04/16 01:23:58;;;;;;;16.08;11.75;;;;;;;3.20;72.03;100015.91;4164630;34;34641;-89
2021/04/16 01:26:37;;;;;;;15.98;11.57;;;;;;;3.16;72.08;100009.16;4120737;34;33434;-89
2021/04/16 01:29:09;;;;;;;16.67;11.90;;;;;;;3.18;71.96;100020.53;4160180;34;32673;-84
2021/04/16 01:31:48;;;;;;;18.05;12.73;;;;;;;3.06;72.12;100018.94;4170171;34;34431;-85
2021/04/16 01:34:27;;;;;;;15.37;11.87;;;;;;;3.14;72.14;100013.75;4185263;34;33484;-84
2021/04/16 01:36:59;;;;;;;15.23;11.73;;;;;;;3.18;71.63;100012.53;4164423;34;34333;-84
2021/04/16 01:39:32;;;;;;;16.65;12.55;;;;;;;3.05;72.17;100022.56;4174687;34;34274;-84
2021/04/16 01:42:06;;;;;;;18.95;12.68;;;;;;;3.13;71.83;100014.75;4185529;34;34267;-89
2021/04/16 01:44:43;;;;;;;17.33;13.10;;;;;;;2.92;72.80;100017.44;4185785;34;32821;-88
2021/04/16 01:47:17;;;;;;;16.55;12.27;;;;;;;2.80;73.07;100020.19;4185606;34;32483;-90
2021/04/16 01:49:52;;;;;;;17.20;11.95;;;;;;;3.05;72.08;100019.91;4174859;34;33933;-84
2021/04/16 01:52:33;;;;;;;16.75;12.45;;;;;;;3.08;71.96;100027.66;4185631;34;35226;-90
2021/04/16 01:55:06;;;;;;;18.65;12.63;;;;;;;3.02;71.91;100021.00;4185587;34;32539;-85
2021/04/16 01:57:39;;;;;;;16.77;12.57;;;;;;;3.05;71.89;100017.22;4171995;34;32179;-90
2021/04/16 02:00:27;;;;;;;17.15;13.02;;;;;;;3.23;71.28;100020.97;4173466;34;33828;-84
2021/04/16 02:03:00;;;;;;;17.37;12.75;;;;;;;3.45;70.17;100019.13;4174968;34;34929;-84
2021/04/16 02:05:32;;;;;;;18.55;13.50;;;;;;;3.12;71.37;100016.56;4174879;34;34306;-91
2021/04/16 02:08:06;;;;;;;17.52;13.27;;;;;;;3.30;71.11;100016.78;4174908;34;34114;-85
2021/04/16 02:10:39;;;;;;;17.62;13.25;;;;;;;3.34;70.46;100023.56;4175631;34;34389;-92
2021/04/16 02:13:13;;;;;;;15.00;12.07;;;;;;;3.56;70.01;100021.66;4160199;34;33983;-92
2021/04/16 02:15:46;;;;;;;16.85;13.57;;;;;;;3.46;70.13;100010.13;4178138;34;33887;-92
2021/04/16 02:18:19;;;;;;;16.62;12.52;;;;;;;3.46;69.99;100016.31;4174720;34;33678;-92
2021/04/16 02:20:51;;;;;;;18.92;12.77;;;;;;;3.58;69.43;100014.38;4173570;34;32937;-91
2021/04/16 02:23:25;;;;;;;16.60;13.15;;;;;;;3.58;69.33;100009.03;4173934;34;35170;-84
2021/04/16 02:25:57;;;;;;;16.87;11.93;;;;;;;3.65;69.10;100010.19;4174615;34;34389;-84
2021/04/16 02:28:30;;;;;;;18.17;13.05;;;;;;;3.84;68.25;100009.38;4174304;34;33942;-92
2021/04/16 02:31:03;;;;;;;16.23;12.52;;;;;;;3.63;68.92;100012.12;4155665;34;265594;-84
2021/04/16 02:33:35;;;;;;;17.20;13.13;;;;;;;3.56;69.00;100005.63;4186649;34;35734;-84
2021/04/16 02:36:08;;;;;;;15.15;11.82;;;;;;;3.94;68.28;99998.72;4164596;34;33319;-91
2021/04/16 02:38:42;;;;;;;16.10;12.50;;;;;;;3.95;67.65;99996.88;4175169;34;33550;-92
2021/04/16 02:41:14;;;;;;;14.95;11.73;;;;;;;3.88;67.74;99992.06;4175457;34;35223;-84
2021/04/16 02:43:47;;;;;;;19.85;12.60;;;;;;;3.85;68.01;99994.19;4176807;34;34010;-92
2021/04/16 02:46:20;;;;;;;15.07;11.82;;;;;;;3.88;67.75;99994.75;4175761;34;33611;-85
2021/04/16 02:48:52;;;;;;;15.55;12.07;;;;;;;4.04;66.80;99988.88;4176513;34;34079;-92
2021/04/16 02:51:25;;;;;;;17.33;12.60;;;;;;;4.04;66.98;99991.53;4175686;34;35141;-92
2021/04/16 02:53:59;;;;;;;15.68;11.50;;;;;;;4.26;65.91;99996.75;4175346;34;34501;-84
2021/04/16 02:56:32;;;;;;;15.98;11.35;;;;;;;4.14;66.19;99999.56;4176365;34;35421;-85
2021/04/16 02:59:04;;;;;;;16.45;11.48;;;;;;;3.87;67.19;99997.56;4176838;34;33257;-85
2021/04/16 03:01:37;;;;;;;16.62;12.43;;;;;;;3.96;67.00;100002.06;4175866;34;33072;-91
2021/04/16 03:04:11;;;;;;;15.07;12.32;;;;;;;3.89;67.00;100011.62;4173929;34;32556;-85
2021/04/16 03:06:43;;;;;;;15.13;11.00;;;;;;;3.74;67.43;100005.00;4163068;34;32995;-91
2021/04/16 03:09:17;;;;;;;15.00;11.70;;;;;;;3.85;67.33;100004.88;4174366;34;34258;-91
2021/04/16 03:11:49;;;;;;;17.58;13.10;;;;;;;3.89;67.56;100006.28;4174107;34;33897;-86
2021/04/16 03:14:22;;;;;;;16.40;12.93;;;;;;;3.80;67.67;100013.31;4175925;34;35363;-91
2021/04/16 03:16:55;;;;;;;17.48;12.65;;;;;;;3.90;67.32;100007.97;4165704;34;34163;-85
2021/04/16 03:19:28;;;;;;;15.55;11.75;;;;;;;3.93;67.39;100006.87;4177711;34;34004;-85
2021/04/16 03:22:00;;;;;;;16.90;11.73;;;;;;;3.94;67.41;100009.41;4177876;34;34788;-91
2021/04/16 03:24:33;;;;;;;16.10;12.07;;;;;;;3.89;67.37;100006.28;4175442;34;34803;-85
2021/04/16 03:27:06;;;;;;;19.90;12.45;;;;;;;3.98;67.07;100012.63;4176239;34;34930;-91
2021/04/16 03:29:40;;;;;;;14.95;11.38;;;;;;;4.13;66.75;100015.75;4164885;34;33932;-91
2021/04/16 03:32:12;;;;;;;15.50;11.52;;;;;;;4.07;66.71;100012.66;4176779;34;34442;-85
2021/04/16 03:34:45;;;;;;;17.08;12.90;;;;;;;4.11;66.37;100015.06;4177250;34;33824;-91
2021/04/16 03:37:18;;;;;;;15.50;11.75;;;;;;;4.11;66.58;100023.09;4176580;34;32886;-92
2021/04/16 03:39:55;;;;;;;15.02;11.27;;;;;;;4.24;65.92;100023.66;4173496;34;34361;-92
2021/04/16 03:42:28;;;;;;;17.77;11.80;;;;;;;4.33;65.78;100022.81;4173889;34;34871;-92
2021/04/16 03:45:03;;;;;;;16.95;12.65;;;;;;;4.40;65.37;100026.63;4176078;34;35283;-92
2021/04/16 03:47:35;;;;;;;16.20;12.13;;;;;;;4.19;65.70;100025.91;4176068;34;34208;-92
2021/04/16 03:50:08;;;;;;;16.37;12.55;;;;;;;4.02;66.51;100022.91;4165333;34;34324;-90
2021/04/16 03:52:41;;;;;;;13.18;10.52;;;;;;;4.30;65.94;100025.78;4176753;34;34277;-92
2021/04/16 03:55:18;;;;;;;13.88;11.25;;;;;;;4.48;65.03;100023.25;4176466;34;34914;-91
2021/04/16 03:57:50;;;;;;;14.68;10.40;;;;;;;4.31;65.65;100027.47;4166069;34;33975;-92
2021/04/16 04:00:29;;;;;;;18.08;12.07;;;;;;;4.31;65.26;100031.97;4176840;34;34812;-92
2021/04/16 04:03:04;;;;;;;16.10;12.27;;;;;;;4.28;65.21;100027.75;4176362;34;34752;-87
2021/04/16 04:05:37;;;;;;;14.85;11.25;;;;;;;4.19;65.14;100031.25;4175961;34;34640;-92
2021/04/16 04:08:11;;;;;;;16.05;11.52;;;;;;;3.99;66.08;100022.34;4187305;34;34497;-92
2021/04/16 04:10:44;;;;;;;16.95;11.57;;;;;;;4.00;66.26;100027.56;4187205;34;32360;-92
2021/04/16 04:13:17;;;;;;;17.33;12.23;;;;;;;4.39;64.85;100024.94;4162899;34;35134;-91
2021/04/16 04:15:50;;;;;;;15.52;12.50;;;;;;;4.18;65.72;100022.38;4183623;34;32741;-92
2021/04/16 04:18:23;;;;;;;14.98;11.55;;;;;;;3.96;66.50;100018.12;4186588;34;34199;-91
2021/04/16 04:20:57;;;;;;;15.82;11.55;;;;;;;3.75;67.37;100022.72;4176256;34;33736;-93
2021/04/16 04:23:30;;;;;;;17.85;11.32;;;;;;;4.12;66.65;100027.47;4176055;34;34777;-85
2021/04/16 04:26:03;;;;;;;13.95;10.40;;;;;;;4.20;66.41;100024.91;4177156;34;35330;-92
2021/04/16 04:28:36;;;;;;;16.10;10.75;;;;;;;4.33;65.84;100014.78;4176059;34;34528;-84
2021/04/16 04:31:08;;;;;;;14.50;11.35;;;;;;;4.15;66.52;100021.84;4176957;34;33391;-85
2021/04/16 04:33:41;;;;;;;15.32;11.88;;;;;;;4.21;66.71;100026.63;4175300;34;34287;-85
2021/04/16 04:36:13;;;;;;;15.40;11.52;;;;;;;4.41;66.52;100028.28;4175811;34;34632;-84
2021/04/16 04:38:49;;;;;;;13.60;10.30;;;;;;;4.67;65.59;100027.75;4165428;34;33924;-90
2021/04/16 04:41:22;;;;;;;15.05;11.68;;;;;;;4.57;66.02;100026.91;4175818;34;34631;-91
2021/04/16 04:43:56;;;;;;;17.40;11.52;;;;;;;4.32;66.28;100026.47;4175632;34;35303;-91
2021/04/16 04:46:28;;;;;;;14.23;11.45;;;;;;;4.69;65.43;100031.13;4176297;34;34499;-84
2021/04/16 04:49:01;;;;;;;13.60;10.88;;;;;;;4.56;65.79;100033.25;4176752;34;34805;-84
2021/04/16 04:51:34;;;;;;;13.68;10.50;;;;;;;4.63;65.60;100025.50;4185799;34;34466;-91
2021/04/16 04:54:08;;;;;;;12.73;10.25;;;;;;;4.45;66.31;100033.41;4180180;34;34663;-85
2021/04/16 04:56:42;;;;;;;13.90;10.70;;;;;;;4.77;65.18;100033.94;4175088;34;35294;-91
2021/04/16 04:59:15;;;;;;;11.50;9.85;;;;;;;4.45;65.60;100036.06;4174665;34;34169;-93
2021/04/16 05:01:48;;;;;;;11.95;9.63;;;;;;;4.34;66.05;100032.53;4175500;34;30774;-94
2021/04/16 05:04:21;;;;;;;12.43;9.27;;;;;;;4.48;65.57;100041.16;4174111;34;34199;-85
2021/04/16 05:06:53;;;;;;;12.13;9.18;;;;;;;4.59;65.79;100041.81;4176355;34;34720;-90
2021/04/16 05:09:26;;;;;;;13.20;10.13;;;;;;;4.65;66.04;100037.75;4173544;34;33787;-92
2021/04/16 05:11:59;;;;;;;13.65;9.80;;;;;;;5.08;64.05;100039.09;4166667;34;32397;-92
2021/04/16 05:14:32;;;;;;;11.00;9.52;;;;;;;5.44;63.31;100047.31;4160129;34;35641;-84
2021/04/16 05:17:05;;;;;;;12.98;9.93;;;;;;;5.14;63.39;100045.72;4169710;34;36408;-84
2021/04/16 05:19:37;;;;;;;13.00;10.10;;;;;;;4.50;65.14;100049.88;4164128;34;35472;-83
2021/04/16 05:22:10;;;;;;;13.40;9.48;;;;;;;4.58;65.71;100050.00;4180753;34;35142;-92
2021/04/16 05:24:42;;;;;;;12.23;9.02;;;;;;;4.80;65.13;100048.88;4170919;34;34808;-90
2021/04/16 05:27:21;;;;;;;13.90;9.18;;;;;;;5.20;64.15;100049.66;4176948;34;34695;-84
2021/04/16 05:29:54;;;;;;;11.00;8.35;;;;;;;5.04;63.60;100045.72;4172172;34;35295;-90
2021/04/16 05:32:26;;;;;;;9.27;7.30;;;;;;;5.02;64.38;100047.72;4160829;34;32574;-90
2021/04/16 05:34:58;;;;;;;10.02;7.80;;;;;;;5.23;62.98;100042.16;4170139;34;35037;-91
2021/04/16 05:37:31;;;;;;;9.13;7.70;;;;;;;5.47;63.50;100049.69;4170147;34;35664;-84
2021/04/16 05:40:05;;;;;;;9.32;7.43;;;;;;;5.29;63.65;100049.59;4182184;34;33067;-91
2021/04/16 05:42:37;;;;;;;9.68;8.35;;;;;;;5.40;63.11;100048.56;4171928;34;34069;-90
2021/04/16 05:45:12;;;;;;;9.75;8.13;;;;;;;5.55;62.57;100048.94;4160493;34;34365;-89
2021/04/16 05:47:44;;;;;;;8.75;7.40;;;;;;;5.63;63.38;100045.56;4170986;34;33998;-84
2021/04/16 05:50:18;;;;;;;11.18;9.27;;;;;;;5.45;63.46;100056.22;4159656;34;36040;-84
2021/04/16 05:52:51;;;;;;;9.18;7.70;;;;;;;5.40;64.37;100051.25;4156687;34;33804;-90
2021/04/16 05:55:24;;;;;;;10.18;7.80;;;;;;;5.48;64.74;100056.75;4168259;34;32472;-91
2021/04/16 05:57:58;;;;;;;11.55;7.43;;;;;;;5.62;64.25;100043.84;4192003;34;33451;-92
2021/04/16 06:00:31;;;;;;;9.00;7.80;;;;;;;6.01;62.55;100044.50;4178067;34;34765;-84
2021/04/16 06:03:03;;;;;;;13.38;8.07;;;;;;;6.15;61.02;100053.91;4172136;34;35566;-90
2021/04/16 06:05:36;;;;;;;10.15;8.13;;;;;;;6.00;62.25;100053.56;4171443;34;34749;-84
2021/04/16 06:08:10;;;;;;;12.45;7.75;;;;;;;6.12;60.71;100056.91;4172402;34;35356;-89
2021/04/16 06:10:41;;;;;;;9.13;6.82;;;;;;;6.07;61.83;100063.72;4172400;34;34815;-83
2021/04/16 06:13:15;;;;;;;8.73;7.82;;;;;;;6.03;61.19;100068.50;4147134;34;35210;-89
2021/04/16 06:15:47;;;;;;;8.80;7.85;;;;;;;5.51;64.38;100070.84;4159070;34;33022;-92
2021/04/16 06:18:23;;;;;;;11.23;8.00;;;;;;;6.18;62.28;100067.03;4182054;34;36017;-83
2021/04/16 06:20:58;;;;;;;10.43;7.62;;;;;;;6.12;61.29;100064.94;4181132;34;36078;-88
2021/04/16 06:23:31;;;;;;;8.70;6.95;;;;;;;5.97;62.26;100061.06;4178071;34;35133;-89
2021/04/16 06:26:08;;;;;;;7.93;6.72;;;;;;;5.58;62.58;100063.91;4170863;34;34517;-96
2021/04/16 06:28:46;;;;;;;9.98;7.47;;;;;;;5.85;62.19;100049.66;4176727;34;33864;-86
2021/04/16 06:31:18;;;;;;;8.52;7.20;;;;;;;5.85;62.92;100065.75;4184923;34;32785;-91
2021/04/16 06:33:54;;;;;;;8.98;6.85;;;;;;;6.11;62.86;100060.56;4165941;34;34103;-93
2021/04/16 06:36:27;;;;;;;9.10;6.93;;;;;;;6.27;62.36;100053.69;4168342;34;34334;-92
2021/04/16 06:39:00;;;;;;;7.28;6.35;;;;;;;6.58;60.83;100064.06;4171319;34;34163;-85
2021/04/16 06:41:34;;;;;;;8.80;7.37;;;;;;;6.84;59.62;100058.72;4163996;34;34793;-93
2021/04/16 06:44:15;;;;;;;8.95;7.90;;;;;;;6.96;60.03;100056.66;4164085;34;34730;-93
2021/04/16 06:46:57;;;;;;;8.70;6.93;;;;;;;7.13;58.78;100055.78;4180046;34;33758;-91
2021/04/16 06:49:30;;;;;;;5.93;5.32;;;;;;;7.14;58.44;100054.78;4183305;34;33460;-87
2021/04/16 06:52:28;;;;;;;7.60;6.40;;;;;;;7.17;56.51;100057.16;4166884;34;33426;-84
2021/04/16 06:55:39;;;;;;;8.02;6.28;;;;;;;7.03;57.63;100065.78;4177670;34;34123;-88
2021/04/16 06:58:18;;;;;;;8.25;6.47;;;;;;;7.04;57.43;100056.72;4180697;34;33706;-94
2021/04/16 07:01:01;;;;;;;8.65;6.45;;;;;;;7.12;57.77;100064.81;4177183;34;34589;-94
2021/04/16 07:03:49;;;;;;;7.20;6.22;;;;;;;6.97;57.98;100067.22;4189314;34;34682;-95
2021/04/16 07:06:25;;;;;;;7.10;6.30;;;;;;;6.79;59.09;100069.94;4167538;34;33437;-91
2021/04/16 07:09:12;;;;;;;7.45;6.53;;;;;;;6.97;56.95;100066.41;4176279;34;37525;-94
2021/04/16 07:12:15;;;;;;;10.98;6.87;;;;;;;6.76;59.84;100064.88;4189512;34;33630;-94
2021/04/16 07:14:55;;;;;;;7.62;6.90;;;;;;;6.96;58.84;100064.69;4197092;34;33853;-94
2021/04/16 07:17:39;;;;;;;6.20;5.55;;;;;;;6.88;59.19;100060.94;4195192;34;33023;-94
2021/04/16 07:20:17;;;;;;;6.72;5.28;;;;;;;6.99;57.57;100080.50;4201964;34;34171;-95
2021/04/16 07:22:55;;;;;;;9.23;6.30;;;;;;;6.80;57.48;100077.00;4188458;34;33092;-89
2021/04/16 07:25:41;;;;;;;6.85;5.78;;;;;;;6.56;58.64;100068.72;4193169;34;34301;-86
2021/04/16 07:28:37;;;;;;;6.87;5.35;;;;;;;6.43;59.35;100071.81;4202921;34;32623;-90
2021/04/16 07:31:29;;;;;;;7.03;5.30;;;;;;;6.54;59.81;100067.06;4202739;34;33712;-96
2021/04/16 07:34:04;;;;;;;6.80;5.82;;;;;;;6.87;60.78;100072.72;4201402;34;33696;-86
2021/04/16 07:36:38;;;;;;;7.57;6.07;;;;;;;7.27;56.75;100077.72;4202452;34;33842;-95
2021/04/16 07:39:12;;;;;;;7.80;5.93;;;;;;;7.39;56.15;100074.56;4189533;34;35873;-93
2021/04/16 07:41:54;;;;;;;5.53;5.00;;;;;;;7.50;56.68;100081.56;4192360;34;34536;-95
2021/04/16 07:44:38;;;;;;;6.55;5.10;;;;;;;7.59;55.03;100080.59;4180049;34;34491;-84
2021/04/16 07:47:25;;;;;;;5.93;5.07;;;;;;;7.32;56.78;100075.38;4202527;34;33695;-93
2021/04/16 07:50:00;;;;;;;5.68;5.07;;;;;;;7.03;56.88;100077.34;4189671;34;35450;-95
2021/04/16 07:52:34;;;;;;;7.10;4.53;;;;;;;7.23;55.44;100079.84;4203818;34;33668;-84
2021/04/16 07:55:19;;;;;;;6.40;4.80;;;;;;;7.49;54.49;100082.56;4203475;34;33673;-93
2021/04/16 07:57:52;;;;;;;6.25;5.00;;;;;;;7.44;55.68;100084.87;4202353;34;33878;-94
2021/04/16 08:00:31;;;;;;;7.53;5.82;;;;;;;7.44;55.69;100071.44;4185712;34;34598;-85
2021/04/16 08:03:29;;;;;;;6.40;5.25;;;;;;;7.90;55.30;100072.00;4203798;34;34568;-88
2021/04/16 08:06:23;;;;;;;6.00;5.40;;;;;;;7.86;54.55;100067.09;4203450;34;33706;-87
2021/04/16 08:09:02;;;;;;;5.78;4.75;;;;;;;7.98;53.60;100071.19;4201787;34;33729;-88
2021/04/16 08:11:38;;;;;;;5.20;4.53;;;;;;;8.42;51.99;100068.25;4201698;34;32129;-85
2021/04/16 08:14:24;;;;;;;5.80;4.55;;;;;;;8.54;51.56;100065.31;4200027;34;33764;-94
2021/04/16 08:17:05;;;;;;;;;;;;;;;8.89;51.38;100074.94;4179642;34;35068;-96
2021/04/16 08:19:38;;;;;;;6.68;5.05;;;;;;;8.78;52.42;100072.56;4190427;34;37030;-85
2021/04/16 08:22:18;;;;;;;6.15;4.87;;;;;;;8.85;50.80;100078.97;4181400;34;32936;-92
2021/04/16 08:25:16;;;;;;;6.00;4.68;;;;;;;8.64;52.37;100066.00;4164733;34;32777;-92
2021/04/16 08:28:03;;;;;;;6.15;5.00;;;;;;;8.87;51.68;100076.94;4169623;34;35196;-93
2021/04/16 08:30:57;;;;;;;5.90;4.90;;;;;;;8.64;51.13;100074.91;4168897;34;33635;-93
2021/04/16 08:33:50;;;;;;;5.95;4.93;;;;;;;8.64;52.18;100077.59;4166206;34;34372;-92
2021/04/16 08:36:31;;;;;;;5.12;4.55;;;;;;;9.07;52.12;100076.59;4178738;34;33352;-92
2021/04/16 08:39:31;;;;;;;5.80;4.87;;;;;;;9.16;49.08;100086.34;4187635;34;35229;-85
2021/04/16 08:42:09;;;;;;;9.90;5.00;;;;;;;8.84;49.87;100096.97;4188753;34;33699;-83
2021/04/16 08:44:49;;;;;;;6.10;5.05;;;;;;;8.72;50.66;100094.78;4178170;34;33070;-93
2021/04/16 08:48:04;;;;;;;6.15;5.03;;;;;;;8.48;50.27;100102.66;4177766;34;33779;-84
2021/04/16 08:50:45;;;;;;;6.72;5.50;;;;;;;8.45;50.90;100099.47;4178646;34;36013;-88
2021/04/16 08:53:22;;;;;;;7.00;5.20;;;;;;;8.58;52.21;100091.75;4179509;34;34389;-85
2021/04/16 08:55:55;;;;;;;5.97;5.00;;;;;;;8.57;51.60;100090.03;4168800;34;32957;-85
2021/04/16 08:58:36;;;;;;;6.00;5.40;;;;;;;8.16;51.66;100094.44;4190014;34;33501;-87
2021/04/16 09:01:28;;;;;;;7.62;6.20;;;;;;;8.21;54.33;100098.34;4178948;34;34363;-96
2021/04/16 09:04:25;;;;;;;7.35;6.00;;;;;;;8.15;54.08;100104.38;4179230;34;33594;-95
2021/04/16 09:06:59;;;;;;;6.95;5.45;;;;;;;8.78;51.87;100099.50;4179026;34;33129;-95
2021/04/16 09:09:41;;;;;;;8.07;6.50;;;;;;;8.02;53.34;100109.38;4178201;34;34726;-92
2021/04/16 09:12:37;;;;;;;7.05;6.03;;;;;;;7.22;53.80;100097.84;4195199;34;33973;-95
2021/04/16 09:15:19;;;;;;;8.50;6.87;;;;;;;8.13;54.08;100106.41;4178128;34;33870;-86
2021/04/16 09:17:52;;;;;;;7.55;5.85;;;;;;;8.35;52.83;100106.81;4198333;34;34251;-92
2021/04/16 09:20:26;;;;;;;7.32;6.15;;;;;;;8.25;53.86;100106.97;4191393;34;33862;-96
2021/04/16 09:22:59;;;;;;;6.43;5.60;;;;;;;8.18;53.81;100108.63;4184040;34;34924;-95
2021/04/16 09:25:50;;;;;;;8.98;6.62;;;;;;;8.31;52.15;100109.81;4189907;34;33628;-96
2021/04/16 09:28:23;;;;;;;6.95;5.78;;;;;;;8.90;51.95;100105.41;4169334;34;33301;-88
2021/04/16 09:31:03;;;;;;;6.75;5.40;;;;;;;8.87;51.60;100109.28;4190885;34;34567;-85
2021/04/16 09:33:35;;;;;;;10.70;6.72;;;;;;;9.28;50.85;100101.19;4179302;34;34537;-84
2021/04/16 09:36:32;;;;;;;6.72;5.20;;;;;;;9.02;49.49;100109.47;4190628;34;33599;-95
2021/04/16 09:39:28;;;;;;;7.00;5.95;;;;;;;8.61;49.93;100112.13;4189694;34;33274;-93
2021/04/16 09:42:33;;;;;;;7.65;6.10;;;;;;;8.83;51.69;100103.41;4179716;34;33578;-84
2021/04/16 09:45:28;;;;;;;6.75;5.70;;;;;;;8.64;51.50;100107.25;4176829;34;34571;-95
2021/04/16 09:48:30;;;;;;;8.13;6.57;;;;;;;8.66;50.98;100099.00;4188808;34;33550;-83
2021/04/16 09:51:02;;;;;;;11.70;6.10;;;;;;;8.97;52.61;100088.41;4163290;34;34095;-84
2021/04/16 09:53:37;;;;;;;7.70;6.03;;;;;;;9.76;50.38;100100.41;4186707;34;33580;-90
2021/04/16 09:56:10;;;;;;;7.28;6.12;;;;;;;9.81;50.26;100100.75;4186517;34;33841;-85
2021/04/16 09:58:49;;;;;;;7.00;5.55;;;;;;;9.31;48.63;100094.59;4179219;34;33665;-86
2021/04/16 10:01:25;;;;;;;8.30;6.07;;;;;;;8.92;49.56;100096.16;4185512;34;33168;-94
2021/04/16 10:04:07;;;;;;;8.52;7.22;;;;;;;9.12;49.58;100098.53;4179403;34;33623;-93
2021/04/16 10:06:43;;;;;;;8.65;6.95;;;;;;;8.98;49.59;100095.50;4189670;34;34236;-93
2021/04/16 10:09:27;;;;;;;7.87;6.35;;;;;;;8.54;52.00;100097.63;4175016;34;34596;-84
2021/04/16 10:12:29;;;;;;;7.97;6.45;;;;;;;8.58;50.71;100099.00;4184635;34;33161;-84
2021/04/16 10:15:22;;;;;;;9.45;7.07;;;;;;;8.73;50.97;100096.50;4167399;34;33600;-88
2021/04/16 10:18:00;;;;;;;7.70;6.62;;;;;;;8.49;51.52;100106.22;4189468;34;33515;-94
2021/04/16 10:20:40;;;;;;;8.13;6.80;;;;;;;8.60;51.89;100105.03;4178909;34;34037;-94
2021/04/16 10:23:24;;;;;;;8.32;7.43;;;;;;;8.84;50.51;100099.66;4166706;34;33135;-84
2021/04/16 12:40:08;;;;;;;7.05;5.75;;;;;;;10.58;47.27;100054.97;4189862;34;34116;-95
2021/04/16 12:42:40;;;;;;;7.45;5.45;;;;;;;10.43;46.54;100056.75;4169416;34;34193;-94
2021/04/16 12:45:17;;;;;;;6.55;5.22;;;;;;;9.79;48.19;100048.78;4169016;34;34349;-95
2021/04/16 12:47:50;;;;;;;7.32;5.10;;;;;;;9.71;48.57;100058.63;4168355;34;33561;-95
2021/04/16 12:50:24;;;;;;;7.72;5.47;;;;;;;9.22;50.05;100060.56;4189580;34;35058;-94
2021/04/16 12:52:57;;;;;;;6.95;5.62;;;;;;;9.01;50.80;100062.78;4179819;34;33661;-84
2021/04/16 12:55:29;;;;;;;6.95;5.40;;;;;;;9.48;50.50;100057.66;4179483;34;34154;-83
2021/04/16 12:58:06;;;;;;;7.12;5.60;;;;;;;10.10;49.90;100053.38;4169756;34;34398;-95
2021/04/16 13:00:43;;;;;;;6.45;5.62;;;;;;;10.23;48.19;100054.47;4180835;34;34254;-93
2021/04/16 13:03:19;;;;;;;5.82;4.85;;;;;;;10.31;48.23;100053.56;4190905;34;33954;-93
2021/04/16 13:05:52;;;;;;;6.50;4.97;;;;;;;9.74;48.10;100064.66;4169309;34;34062;-95
2021/04/16 13:08:25;;;;;;;5.62;5.00;;;;;;;9.51;49.22;100063.53;4166536;34;35567;-92
2021/04/16 13:11:09;;;;;;;6.32;5.03;;;;;;;9.42;49.67;100058.34;4187662;34;34785;-92
2021/04/16 13:13:45;;;;;;;6.60;5.40;;;;;;;9.67;50.62;100059.97;4180783;34;34600;-91
2021/04/16 13:16:19;;;;;;;6.37;5.10;;;;;;;9.94;48.60;100054.28;4191225;34;34669;-95
2021/04/16 13:18:57;;;;;;;7.15;5.60;;;;;;;9.53;49.22;100066.06;4190659;34;35488;-91
2021/04/16 13:21:39;;;;;;;6.35;5.53;;;;;;;9.40;49.16;100049.56;4180173;34;34915;-94
2021/04/16 13:24:11;;;;;;;6.12;5.05;;;;;;;9.25;49.43;100053.00;4179234;34;34951;-84
2021/04/16 13:26:44;;;;;;;5.90;5.03;;;;;;;9.41;50.05;100052.09;4180351;34;35292;-83
2021/04/16 13:29:21;;;;;;;8.98;5.47;;;;;;;9.14;49.79;100045.25;4200945;34;34689;-94
2021/04/16 13:31:54;;;;;;;7.55;5.40;;;;;;;9.30;50.34;100050.63;4168555;34;35811;-89
2021/04/16 13:34:29;;;;;;;6.03;5.43;;;;;;;9.62;49.72;100051.53;4179143;34;33833;-94
2021/04/16 13:37:02;;;;;;;6.03;5.32;;;;;;;9.47;49.58;100047.88;4168719;34;34233;-84
2021/04/16 13:39:34;;;;;;;5.85;4.90;;;;;;;9.82;50.72;100037.63;4179429;34;35907;-95
2021/04/16 13:42:08;;;;;;;6.55;5.87;;;;;;;9.47;49.26;100029.81;4191449;34;34329;-93
2021/04/16 13:44:44;;;;;;;6.25;5.18;;;;;;;9.17;50.33;100034.13;4156248;34;34732;-91
2021/04/16 13:47:20;;;;;;;7.10;5.95;;;;;;;9.31;49.76;100037.97;4177870;34;35188;-96
2021/04/16 13:49:56;;;;;;;11.27;5.25;;;;;;;9.23;51.94;100036.13;4191551;34;37126;-83
2021/04/16 13:52:28;;;;;;;7.72;6.80;;;;;;;9.35;50.24;100031.22;4190310;34;35888;-93
2021/04/16 13:55:02;;;;;;;7.12;5.95;;;;;;;9.21;50.89;100035.47;4201285;34;35720;-96
2021/04/16 13:57:34;;;;;;;7.28;6.18;;;;;;;9.11;50.94;100034.81;4179753;34;33982;-93
2021/04/16 14:00:09;;;;;;;8.23;6.60;;;;;;;9.39;51.21;100031.72;4179426;34;34889;-85
2021/04/16 14:02:48;;;;;;;7.57;6.18;;;;;;;9.61;50.39;100030.97;4169362;34;34443;-85
2021/04/16 14:05:28;;;;;;;8.02;6.65;;;;;;;9.62;51.35;100021.84;4178810;34;35881;-95
2021/04/16 14:08:03;;;;;;;6.53;5.90;;;;;;;9.85;49.96;100015.69;4169734;34;33042;-84
2021/04/16 14:10:38;;;;;;;7.82;6.55;;;;;;;10.18;49.33;100015.50;4191286;34;34606;-83
2021/04/16 14:13:15;;;;;;;7.05;6.35;;;;;;;10.01;48.69;100015.59;4190823;34;33575;-86
2021/04/16 14:15:48;;;;;;;7.30;6.15;;;;;;;10.08;49.20;100008.47;4189904;34;32951;-94
2021/04/16 14:18:33;;;;;;;7.62;6.12;;;;;;;10.23;48.29;99997.75;4157936;34;32723;-91
2021/04/16 14:21:07;;;;;;;7.03;5.93;;;;;;;9.64;49.18;99992.84;4187355;34;33684;-92
2021/04/16 14:23:42;;;;;;;7.28;6.07;;;;;;;9.59;50.57;99989.81;4164531;34;35602;-84
2021/04/16 14:26:20;;;;;;;7.43;6.32;;;;;;;9.64;49.42;99992.84;4187236;34;35072;-84